sensor_id;sensor_type;location;lat;lon;timestamp;temperature;humidity
23671;DHT22;12012;51.998;7.614;2023-01-09T00:00:12;7.50;1.00
23671;DHT22;12012;51.998;7.614;2023-01-09T00:02:38;7.50;1.00
23671;DHT22;12012;51.998;7.614;2023-01-09T00:05:06;7.50;1.00
23671;DHT22;12012;51.998;7.614;2023-01-09T00:07:32;7.50;1.00
23671;DHT22;12012;51.998;7.614;2023-01-09T00:09:58;7.50;1.00
23671;DHT22;12012;51.998;7.614;2023-01-09T00:12:23;7.50;1.00
23671;DHT22;12012;51.998;7.614;2023-01-09T00:14:49;7.50;2.10
23671;DHT22;12012;51.998;7.614;2023-01-09T00:17:14;7.50;10.70
23671;DHT22;12012;51.998;7.614;2023-01-09T00:19:40;7.50;9.70
23671;DHT22;12012;51.998;7.614;2023-01-09T00:22:05;7.50;34.40
23671;DHT22;12012;51.998;7.614;2023-01-09T00:24:34;7.50;31.50
23671;DHT22;12012;51.998;7.614;2023-01-09T00:27:00;7.50;33.00
23671;DHT22;12012;51.998;7.614;2023-01-09T00:29:25;7.50;38.80
23671;DHT22;12012;51.998;7.614;2023-01-09T00:31:51;7.50;50.10
23671;DHT22;12012;51.998;7.614;2023-01-09T00:34:17;7.60;53.10
23671;DHT22;12012;51.998;7.614;2023-01-09T00:36:42;7.50;52.30
23671;DHT22;12012;51.998;7.614;2023-01-09T00:39:08;7.50;58.80
23671;DHT22;12012;51.998;7.614;2023-01-09T00:41:40;7.50;58.10
23671;DHT22;12012;51.998;7.614;2023-01-09T00:44:10;7.50;69.30
23671;DHT22;12012;51.998;7.614;2023-01-09T00:46:40;7.50;71.50
23671;DHT22;12012;51.998;7.614;2023-01-09T00:49:14;7.50;73.20
23671;DHT22;12012;51.998;7.614;2023-01-09T00:51:40;7.50;77.10
23671;DHT22;12012;51.998;7.614;2023-01-09T00:54:07;7.50;78.80
23671;DHT22;12012;51.998;7.614;2023-01-09T00:56:35;7.50;76.10
23671;DHT22;12012;51.998;7.614;2023-01-09T00:59:02;7.50;84.70
23671;DHT22;12012;51.998;7.614;2023-01-09T01:01:27;7.50;86.30
23671;DHT22;12012;51.998;7.614;2023-01-09T01:03:53;7.50;85.50
23671;DHT22;12012;51.998;7.614;2023-01-09T01:06:19;7.50;86.20
23671;DHT22;12012;51.998;7.614;2023-01-09T01:09:03;7.50;88.40
23671;DHT22;12012;51.998;7.614;2023-01-09T01:11:30;7.50;83.70
23671;DHT22;12012;51.998;7.614;2023-01-09T01:13:56;7.50;83.80
23671;DHT22;12012;51.998;7.614;2023-01-09T01:16:22;7.50;88.30
23671;DHT22;12012;51.998;7.614;2023-01-09T01:18:48;7.50;90.10
23671;DHT22;12012;51.998;7.614;2023-01-09T01:21:14;7.50;93.80
23671;DHT22;12012;51.998;7.614;2023-01-09T01:23:39;7.50;95.10
23671;DHT22;12012;51.998;7.614;2023-01-09T01:26:07;7.60;96.90
23671;DHT22;12012;51.998;7.614;2023-01-09T01:28:33;7.60;98.60
23671;DHT22;12012;51.998;7.614;2023-01-09T01:30:59;7.60;99.70
23671;DHT22;12012;51.998;7.614;2023-01-09T01:33:25;7.60;99.90
23671;DHT22;12012;51.998;7.614;2023-01-09T01:35:57;7.60;99.90
23671;DHT22;12012;51.998;7.614;2023-01-09T01:38:23;7.60;99.90
23671;DHT22;12012;51.998;7.614;2023-01-09T01:40:53;7.60;99.90
23671;DHT22;12012;51.998;7.614;2023-01-09T01:43:18;7.60;99.90
23671;DHT22;12012;51.998;7.614;2023-01-09T01:45:44;7.60;99.90
23671;DHT22;12012;51.998;7.614;2023-01-09T01:48:17;7.50;99.90
23671;DHT22;12012;51.998;7.614;2023-01-09T01:50:58;7.50;99.90
23671;DHT22;12012;51.998;7.614;2023-01-09T01:53:31;7.50;99.90
23671;DHT22;12012;51.998;7.614;2023-01-09T01:58:26;7.50;99.90
23671;DHT22;12012;51.998;7.614;2023-01-09T02:00:52;7.50;99.90
23671;DHT22;12012;51.998;7.614;2023-01-09T02:03:22;7.50;99.90
23671;DHT22;12012;51.998;7.614;2023-01-09T02:05:49;7.50;99.90
23671;DHT22;12012;51.998;7.614;2023-01-09T02:08:15;7.50;99.90
23671;DHT22;12012;51.998;7.614;2023-01-09T02:10:41;7.40;99.90
23671;DHT22;12012;51.998;7.614;2023-01-09T02:13:08;7.50;99.90
23671;DHT22;12012;51.998;7.614;2023-01-09T02:15:48;7.50;99.90
23671;DHT22;12012;51.998;7.614;2023-01-09T02:18:45;7.50;99.90
23671;DHT22;12012;51.998;7.614;2023-01-09T02:32:44;7.40;99.90
23671;DHT22;12012;51.998;7.614;2023-01-09T02:41:23;7.40;99.90
23671;DHT22;12012;51.998;7.614;2023-01-09T02:44:10;7.40;99.90
23671;DHT22;12012;51.998;7.614;2023-01-09T02:46:36;7.40;99.90
23671;DHT22;12012;51.998;7.614;2023-01-09T02:49:01;7.40;99.90
23671;DHT22;12012;51.998;7.614;2023-01-09T02:51:39;7.40;99.90
23671;DHT22;12012;51.998;7.614;2023-01-09T02:54:47;7.40;99.90
23671;DHT22;12012;51.998;7.614;2023-01-09T03:00:16;7.30;99.90
23671;DHT22;12012;51.998;7.614;2023-01-09T03:02:54;7.30;99.90
23671;DHT22;12012;51.998;7.614;2023-01-09T03:05:32;7.20;99.90
23671;DHT22;12012;51.998;7.614;2023-01-09T03:08:04;7.20;99.90
23671;DHT22;12012;51.998;7.614;2023-01-09T03:10:38;7.10;99.90
23671;DHT22;12012;51.998;7.614;2023-01-09T03:13:09;7.10;99.90
23671;DHT22;12012;51.998;7.614;2023-01-09T03:15:37;7.10;99.90
23671;DHT22;12012;51.998;7.614;2023-01-09T03:18:04;7.00;99.90
23671;DHT22;12012;51.998;7.614;2023-01-09T03:20:32;7.00;99.90
23671;DHT22;12012;51.998;7.614;2023-01-09T03:23:00;7.00;99.90
23671;DHT22;12012;51.998;7.614;2023-01-09T03:25:28;6.90;99.90
23671;DHT22;12012;51.998;7.614;2023-01-09T03:27:57;6.90;99.90
23671;DHT22;12012;51.998;7.614;2023-01-09T03:30:24;6.90;99.90
23671;DHT22;12012;51.998;7.614;2023-01-09T03:32:50;6.80;99.90
23671;DHT22;12012;51.998;7.614;2023-01-09T03:35:16;6.80;99.90
23671;DHT22;12012;51.998;7.614;2023-01-09T03:37:42;6.80;99.90
23671;DHT22;12012;51.998;7.614;2023-01-09T03:40:08;6.70;99.90
23671;DHT22;12012;51.998;7.614;2023-01-09T03:42:33;6.70;99.90
23671;DHT22;12012;51.998;7.614;2023-01-09T03:44:59;6.70;99.90
23671;DHT22;12012;51.998;7.614;2023-01-09T03:47:25;6.70;99.90
23671;DHT22;12012;51.998;7.614;2023-01-09T03:49:50;6.60;99.90
23671;DHT22;12012;51.998;7.614;2023-01-09T03:52:16;6.60;99.90
23671;DHT22;12012;51.998;7.614;2023-01-09T03:54:41;6.60;99.90
23671;DHT22;12012;51.998;7.614;2023-01-09T03:57:07;6.70;99.90
23671;DHT22;12012;51.998;7.614;2023-01-09T03:59:33;6.70;99.90
23671;DHT22;12012;51.998;7.614;2023-01-09T04:01:58;6.70;99.90
23671;DHT22;12012;51.998;7.614;2023-01-09T04:04:24;6.60;99.90
23671;DHT22;12012;51.998;7.614;2023-01-09T04:06:49;6.70;99.90
23671;DHT22;12012;51.998;7.614;2023-01-09T04:09:15;6.70;99.90
23671;DHT22;12012;51.998;7.614;2023-01-09T04:11:40;6.70;99.90
23671;DHT22;12012;51.998;7.614;2023-01-09T04:14:06;6.70;99.90
23671;DHT22;12012;51.998;7.614;2023-01-09T04:16:31;6.70;99.90
23671;DHT22;12012;51.998;7.614;2023-01-09T04:18:57;6.70;99.90
23671;DHT22;12012;51.998;7.614;2023-01-09T04:21:23;6.70;99.90
23671;DHT22;12012;51.998;7.614;2023-01-09T04:23:48;6.70;99.90
23671;DHT22;12012;51.998;7.614;2023-01-09T04:26:14;6.70;99.90
23671;DHT22;12012;51.998;7.614;2023-01-09T04:28:39;6.60;99.90
23671;DHT22;12012;51.998;7.614;2023-01-09T04:31:05;6.60;99.90
23671;DHT22;12012;51.998;7.614;2023-01-09T04:33:30;6.50;99.90
23671;DHT22;12012;51.998;7.614;2023-01-09T04:35:56;6.50;99.90
23671;DHT22;12012;51.998;7.614;2023-01-09T04:38:21;6.40;99.90
23671;DHT22;12012;51.998;7.614;2023-01-09T04:40:47;6.40;99.90
23671;DHT22;12012;51.998;7.614;2023-01-09T04:43:13;6.40;99.90
23671;DHT22;12012;51.998;7.614;2023-01-09T04:45:39;6.40;99.90
23671;DHT22;12012;51.998;7.614;2023-01-09T04:48:05;6.40;99.90
23671;DHT22;12012;51.998;7.614;2023-01-09T04:50:31;6.40;99.90
23671;DHT22;12012;51.998;7.614;2023-01-09T04:52:56;6.40;99.90
23671;DHT22;12012;51.998;7.614;2023-01-09T04:55:22;6.50;99.90
23671;DHT22;12012;51.998;7.614;2023-01-09T04:57:47;6.50;99.90
23671;DHT22;12012;51.998;7.614;2023-01-09T05:00:13;6.50;99.90
23671;DHT22;12012;51.998;7.614;2023-01-09T05:02:39;6.60;99.90
23671;DHT22;12012;51.998;7.614;2023-01-09T05:05:07;6.50;99.90
23671;DHT22;12012;51.998;7.614;2023-01-09T05:07:33;6.50;99.90
23671;DHT22;12012;51.998;7.614;2023-01-09T05:09:59;6.60;99.90
23671;DHT22;12012;51.998;7.614;2023-01-09T05:12:24;6.60;99.90
23671;DHT22;12012;51.998;7.614;2023-01-09T05:14:50;6.60;99.90
23671;DHT22;12012;51.998;7.614;2023-01-09T05:17:16;6.60;99.90
23671;DHT22;12012;51.998;7.614;2023-01-09T05:19:41;6.60;99.90
23671;DHT22;12012;51.998;7.614;2023-01-09T05:22:10;6.60;99.90
23671;DHT22;12012;51.998;7.614;2023-01-09T05:24:36;6.60;99.90
23671;DHT22;12012;51.998;7.614;2023-01-09T05:27:01;6.60;99.90
23671;DHT22;12012;51.998;7.614;2023-01-09T05:29:27;6.60;99.90
23671;DHT22;12012;51.998;7.614;2023-01-09T05:31:53;6.70;99.90
23671;DHT22;12012;51.998;7.614;2023-01-09T05:34:19;6.70;99.90
23671;DHT22;12012;51.998;7.614;2023-01-09T05:36:45;6.60;99.90
23671;DHT22;12012;51.998;7.614;2023-01-09T05:39:10;6.70;99.90
23671;DHT22;12012;51.998;7.614;2023-01-09T05:41:36;6.60;99.90
23671;DHT22;12012;51.998;7.614;2023-01-09T05:44:02;6.60;99.90
23671;DHT22;12012;51.998;7.614;2023-01-09T05:46:29;6.60;99.90
23671;DHT22;12012;51.998;7.614;2023-01-09T05:48:55;6.60;99.90
23671;DHT22;12012;51.998;7.614;2023-01-09T05:51:21;6.60;99.90
23671;DHT22;12012;51.998;7.614;2023-01-09T05:53:46;6.60;99.90
23671;DHT22;12012;51.998;7.614;2023-01-09T05:56:12;6.60;99.90
23671;DHT22;12012;51.998;7.614;2023-01-09T05:58:37;6.60;99.90
23671;DHT22;12012;51.998;7.614;2023-01-09T06:01:03;6.60;99.90
23671;DHT22;12012;51.998;7.614;2023-01-09T06:03:29;6.60;99.90
23671;DHT22;12012;51.998;7.614;2023-01-09T06:05:54;6.50;99.90
23671;DHT22;12012;51.998;7.614;2023-01-09T06:08:20;6.50;99.90
23671;DHT22;12012;51.998;7.614;2023-01-09T06:10:46;6.60;99.90
23671;DHT22;12012;51.998;7.614;2023-01-09T06:13:12;6.60;99.90
23671;DHT22;12012;51.998;7.614;2023-01-09T06:15:38;6.50;99.90
23671;DHT22;12012;51.998;7.614;2023-01-09T06:18:03;6.50;99.90
23671;DHT22;12012;51.998;7.614;2023-01-09T06:20:29;6.50;99.90
23671;DHT22;12012;51.998;7.614;2023-01-09T06:22:55;6.60;99.90
23671;DHT22;12012;51.998;7.614;2023-01-09T06:25:21;6.50;99.90
23671;DHT22;12012;51.998;7.614;2023-01-09T06:27:46;6.50;99.90
23671;DHT22;12012;51.998;7.614;2023-01-09T06:30:13;6.50;99.90
23671;DHT22;12012;51.998;7.614;2023-01-09T06:32:38;6.60;99.90
23671;DHT22;12012;51.998;7.614;2023-01-09T06:35:04;6.60;99.90
23671;DHT22;12012;51.998;7.614;2023-01-09T06:37:30;6.60;99.90
23671;DHT22;12012;51.998;7.614;2023-01-09T06:39:55;6.50;99.80
23671;DHT22;12012;51.998;7.614;2023-01-09T06:42:21;6.50;99.30
23671;DHT22;12012;51.998;7.614;2023-01-09T06:44:46;6.50;99.30
23671;DHT22;12012;51.998;7.614;2023-01-09T06:47:12;6.50;99.10
23671;DHT22;12012;51.998;7.614;2023-01-09T06:49:38;6.40;99.30
23671;DHT22;12012;51.998;7.614;2023-01-09T06:52:03;6.40;99.30
23671;DHT22;12012;51.998;7.614;2023-01-09T06:54:32;6.40;99.20
23671;DHT22;12012;51.998;7.614;2023-01-09T06:56:58;6.40;99.20
23671;DHT22;12012;51.998;7.614;2023-01-09T06:59:23;6.40;99.30
23671;DHT22;12012;51.998;7.614;2023-01-09T07:01:49;6.40;99.30
23671;DHT22;12012;51.998;7.614;2023-01-09T07:04:15;6.40;99.20
23671;DHT22;12012;51.998;7.614;2023-01-09T07:06:41;6.50;99.20
23671;DHT22;12012;51.998;7.614;2023-01-09T07:09:07;6.50;99.10
23671;DHT22;12012;51.998;7.614;2023-01-09T07:11:37;6.40;98.80
23671;DHT22;12012;51.998;7.614;2023-01-09T07:14:03;6.40;98.80
23671;DHT22;12012;51.998;7.614;2023-01-09T07:16:29;6.40;98.70
23671;DHT22;12012;51.998;7.614;2023-01-09T07:18:54;6.50;98.60
23671;DHT22;12012;51.998;7.614;2023-01-09T07:21:20;6.40;98.60
23671;DHT22;12012;51.998;7.614;2023-01-09T07:23:45;6.50;98.60
23671;DHT22;12012;51.998;7.614;2023-01-09T07:26:11;6.40;98.50
23671;DHT22;12012;51.998;7.614;2023-01-09T07:28:36;6.40;98.30
23671;DHT22;12012;51.998;7.614;2023-01-09T07:31:02;6.50;98.20
23671;DHT22;12012;51.998;7.614;2023-01-09T07:33:29;6.50;98.30
23671;DHT22;12012;51.998;7.614;2023-01-09T07:35:54;6.50;98.50
23671;DHT22;12012;51.998;7.614;2023-01-09T07:38:20;6.40;98.60
23671;DHT22;12012;51.998;7.614;2023-01-09T07:40:45;6.40;98.70
23671;DHT22;12012;51.998;7.614;2023-01-09T07:43:11;6.50;98.80
23671;DHT22;12012;51.998;7.614;2023-01-09T07:45:37;6.50;98.80
23671;DHT22;12012;51.998;7.614;2023-01-09T07:48:02;6.50;99.00
23671;DHT22;12012;51.998;7.614;2023-01-09T07:50:28;6.40;98.80
23671;DHT22;12012;51.998;7.614;2023-01-09T07:52:53;6.40;98.70
23671;DHT22;12012;51.998;7.614;2023-01-09T07:55:19;6.50;98.70
23671;DHT22;12012;51.998;7.614;2023-01-09T07:57:51;6.50;98.60
23671;DHT22;12012;51.998;7.614;2023-01-09T08:00:18;6.50;98.60
23671;DHT22;12012;51.998;7.614;2023-01-09T08:02:49;6.50;98.40
23671;DHT22;12012;51.998;7.614;2023-01-09T08:05:15;6.50;98.20
23671;DHT22;12012;51.998;7.614;2023-01-09T08:07:40;6.50;97.90
23671;DHT22;12012;51.998;7.614;2023-01-09T08:10:07;6.60;97.80
23671;DHT22;12012;51.998;7.614;2023-01-09T08:12:34;6.60;97.40
23671;DHT22;12012;51.998;7.614;2023-01-09T08:15:00;6.60;97.30
23671;DHT22;12012;51.998;7.614;2023-01-09T08:17:25;6.60;97.20
23671;DHT22;12012;51.998;7.614;2023-01-09T08:19:51;6.60;97.00
23671;DHT22;12012;51.998;7.614;2023-01-09T08:22:17;6.70;97.10
23671;DHT22;12012;51.998;7.614;2023-01-09T08:24:42;6.70;96.60
23671;DHT22;12012;51.998;7.614;2023-01-09T08:27:08;6.70;96.50
23671;DHT22;12012;51.998;7.614;2023-01-09T08:29:34;6.70;96.20
23671;DHT22;12012;51.998;7.614;2023-01-09T08:31:59;6.80;96.10
23671;DHT22;12012;51.998;7.614;2023-01-09T08:34:25;6.80;95.60
23671;DHT22;12012;51.998;7.614;2023-01-09T08:36:50;6.90;95.60
23671;DHT22;12012;51.998;7.614;2023-01-09T08:39:17;6.90;95.60
23671;DHT22;12012;51.998;7.614;2023-01-09T08:41:43;6.90;95.00
23671;DHT22;12012;51.998;7.614;2023-01-09T08:44:41;7.00;94.50
23671;DHT22;12012;51.998;7.614;2023-01-09T08:47:25;7.00;94.60
23671;DHT22;12012;51.998;7.614;2023-01-09T08:49:53;7.10;93.50
23671;DHT22;12012;51.998;7.614;2023-01-09T08:52:18;7.10;93.80
23671;DHT22;12012;51.998;7.614;2023-01-09T08:54:44;7.20;94.10
23671;DHT22;12012;51.998;7.614;2023-01-09T08:57:09;7.20;93.20
23671;DHT22;12012;51.998;7.614;2023-01-09T08:59:35;7.20;92.90
23671;DHT22;12012;51.998;7.614;2023-01-09T09:02:01;7.20;92.40
23671;DHT22;12012;51.998;7.614;2023-01-09T09:04:26;7.30;91.90
23671;DHT22;12012;51.998;7.614;2023-01-09T09:06:52;7.30;92.10
23671;DHT22;12012;51.998;7.614;2023-01-09T09:09:18;7.30;91.70
23671;DHT22;12012;51.998;7.614;2023-01-09T09:11:43;7.40;91.30
23671;DHT22;12012;51.998;7.614;2023-01-09T09:14:09;7.50;91.00
23671;DHT22;12012;51.998;7.614;2023-01-09T09:17:07;7.50;90.30
23671;DHT22;12012;51.998;7.614;2023-01-09T09:19:32;7.50;88.90
23671;DHT22;12012;51.998;7.614;2023-01-09T09:21:58;7.50;85.80
23671;DHT22;12012;51.998;7.614;2023-01-09T09:24:23;7.50;88.10
23671;DHT22;12012;51.998;7.614;2023-01-09T09:26:49;7.60;86.00
23671;DHT22;12012;51.998;7.614;2023-01-09T09:29:15;7.50;84.00
23671;DHT22;12012;51.998;7.614;2023-01-09T09:31:41;7.50;85.30
23671;DHT22;12012;51.998;7.614;2023-01-09T09:34:07;7.50;85.60
23671;DHT22;12012;51.998;7.614;2023-01-09T09:36:32;7.50;84.70
23671;DHT22;12012;51.998;7.614;2023-01-09T09:38:58;7.50;84.90
23671;DHT22;12012;51.998;7.614;2023-01-09T09:55:33;7.40;85.70
23671;DHT22;12012;51.998;7.614;2023-01-09T09:58:03;7.30;88.50
23671;DHT22;12012;51.998;7.614;2023-01-09T10:00:31;7.30;89.80
23671;DHT22;12012;51.998;7.614;2023-01-09T10:03:06;7.30;90.90
23671;DHT22;12012;51.998;7.614;2023-01-09T10:05:39;7.30;91.90
23671;DHT22;12012;51.998;7.614;2023-01-09T10:10:52;7.30;93.30
23671;DHT22;12012;51.998;7.614;2023-01-09T10:13:19;7.30;93.80
23671;DHT22;12012;51.998;7.614;2023-01-09T10:19:06;7.30;94.30
23671;DHT22;12012;51.998;7.614;2023-01-09T10:24:36;7.40;94.50
23671;DHT22;12012;51.998;7.614;2023-01-09T10:27:17;7.40;94.60
23671;DHT22;12012;51.998;7.614;2023-01-09T10:29:55;7.40;94.10
23671;DHT22;12012;51.998;7.614;2023-01-09T10:37:59;7.50;95.10
23671;DHT22;12012;51.998;7.614;2023-01-09T10:40:34;7.60;95.30
23671;DHT22;12012;51.998;7.614;2023-01-09T10:43:18;7.70;95.00
23671;DHT22;12012;51.998;7.614;2023-01-09T10:45:50;7.70;94.60
23671;DHT22;12012;51.998;7.614;2023-01-09T10:48:35;7.70;94.50
23671;DHT22;12012;51.998;7.614;2023-01-09T10:51:10;7.70;94.80
23671;DHT22;12012;51.998;7.614;2023-01-09T10:53:42;7.70;95.30
23671;DHT22;12012;51.998;7.614;2023-01-09T10:56:33;7.70;95.20
23671;DHT22;12012;51.998;7.614;2023-01-09T10:59:02;7.70;95.10
23671;DHT22;12012;51.998;7.614;2023-01-09T11:01:31;7.70;95.20
23671;DHT22;12012;51.998;7.614;2023-01-09T11:03:57;7.70;95.40
23671;DHT22;12012;51.998;7.614;2023-01-09T11:06:43;7.70;95.30
23671;DHT22;12012;51.998;7.614;2023-01-09T11:09:10;7.70;94.80
23671;DHT22;12012;51.998;7.614;2023-01-09T11:11:38;7.70;94.80
23671;DHT22;12012;51.998;7.614;2023-01-09T11:19:21;7.80;94.90
23671;DHT22;12012;51.998;7.614;2023-01-09T11:21:47;7.90;94.10
23671;DHT22;12012;51.998;7.614;2023-01-09T11:26:50;7.90;93.20
23671;DHT22;12012;51.998;7.614;2023-01-09T11:29:21;7.80;93.40
23671;DHT22;12012;51.998;7.614;2023-01-09T11:31:53;7.80;94.20
23671;DHT22;12012;51.998;7.614;2023-01-09T11:34:25;7.90;94.60
23671;DHT22;12012;51.998;7.614;2023-01-09T11:36:52;7.90;94.30
23671;DHT22;12012;51.998;7.614;2023-01-09T11:39:27;7.90;93.10
23671;DHT22;12012;51.998;7.614;2023-01-09T11:42:00;7.90;92.60
23671;DHT22;12012;51.998;7.614;2023-01-09T11:44:27;8.00;92.70
23671;DHT22;12012;51.998;7.614;2023-01-09T11:46:55;8.00;92.30
23671;DHT22;12012;51.998;7.614;2023-01-09T11:49:27;8.20;91.50
23671;DHT22;12012;51.998;7.614;2023-01-09T11:54:52;8.50;80.20
23671;DHT22;12012;51.998;7.614;2023-01-09T11:57:20;8.60;75.90
23671;DHT22;12012;51.998;7.614;2023-01-09T11:59:47;8.60;74.70
23671;DHT22;12012;51.998;7.614;2023-01-09T12:08:14;8.60;70.40
23671;DHT22;12012;51.998;7.614;2023-01-09T12:17:03;8.50;64.80
23671;DHT22;12012;51.998;7.614;2023-01-09T12:22:51;8.30;61.80
23671;DHT22;12012;51.998;7.614;2023-01-09T12:31:06;8.30;58.70
23671;DHT22;12012;51.998;7.614;2023-01-09T12:46:46;8.40;57.80
23671;DHT22;12012;51.998;7.614;2023-01-09T12:49:33;8.40;59.20
23671;DHT22;12012;51.998;7.614;2023-01-09T12:52:18;8.30;60.10
23671;DHT22;12012;51.998;7.614;2023-01-09T12:55:12;8.30;61.30
23671;DHT22;12012;51.998;7.614;2023-01-09T12:57:45;8.30;58.20
23671;DHT22;12012;51.998;7.614;2023-01-09T13:02:55;8.20;58.30
23671;DHT22;12012;51.998;7.614;2023-01-09T13:05:39;8.20;56.30
23671;DHT22;12012;51.998;7.614;2023-01-09T13:08:12;8.30;54.20
23671;DHT22;12012;51.998;7.614;2023-01-09T13:10:42;8.80;43.60
23671;DHT22;12012;51.998;7.614;2023-01-09T13:15:56;9.40;11.00
23671;DHT22;12012;51.998;7.614;2023-01-09T13:18:40;9.40;1.00
23671;DHT22;12012;51.998;7.614;2023-01-09T13:21:08;9.40;1.00
23671;DHT22;12012;51.998;7.614;2023-01-09T13:23:48;9.30;1.00
23671;DHT22;12012;51.998;7.614;2023-01-09T13:26:31;9.20;7.60
23671;DHT22;12012;51.998;7.614;2023-01-09T13:29:08;9.10;3.90
23671;DHT22;12012;51.998;7.614;2023-01-09T13:31:55;9.10;8.20
23671;DHT22;12012;51.998;7.614;2023-01-09T13:34:30;8.90;12.60
23671;DHT22;12012;51.998;7.614;2023-01-09T13:36:57;8.80;18.20
23671;DHT22;12012;51.998;7.614;2023-01-09T13:39:32;8.70;21.50
23671;DHT22;12012;51.998;7.614;2023-01-09T13:42:04;8.60;25.40
23671;DHT22;12012;51.998;7.614;2023-01-09T13:44:51;8.50;29.60
23671;DHT22;12012;51.998;7.614;2023-01-09T13:47:24;8.50;31.80
23671;DHT22;12012;51.998;7.614;2023-01-09T13:59:53;8.20;46.80
23671;DHT22;12012;51.998;7.614;2023-01-09T14:05:13;8.10;53.70
23671;DHT22;12012;51.998;7.614;2023-01-09T14:10:30;8.00;56.80
23671;DHT22;12012;51.998;7.614;2023-01-09T14:12:58;8.00;56.70
23671;DHT22;12012;51.998;7.614;2023-01-09T14:15:34;8.00;57.80
23671;DHT22;12012;51.998;7.614;2023-01-09T14:18:24;7.90;59.20
23671;DHT22;12012;51.998;7.614;2023-01-09T14:20:57;7.90;57.10
23671;DHT22;12012;51.998;7.614;2023-01-09T14:23:35;7.90;57.10
23671;DHT22;12012;51.998;7.614;2023-01-09T14:26:02;7.90;57.70
23671;DHT22;12012;51.998;7.614;2023-01-09T14:28:30;7.80;61.10
23671;DHT22;12012;51.998;7.614;2023-01-09T14:36:19;7.70;66.80
23671;DHT22;12012;51.998;7.614;2023-01-09T14:38:53;7.70;67.00
23671;DHT22;12012;51.998;7.614;2023-01-09T14:46:55;7.70;69.80
23671;DHT22;12012;51.998;7.614;2023-01-09T14:49:46;7.70;70.80
23671;DHT22;12012;51.998;7.614;2023-01-09T14:52:36;7.70;71.80
23671;DHT22;12012;51.998;7.614;2023-01-09T14:55:11;7.70;72.10
23671;DHT22;12012;51.998;7.614;2023-01-09T14:57:40;7.70;73.50
23671;DHT22;12012;51.998;7.614;2023-01-09T15:00:15;7.70;73.90
23671;DHT22;12012;51.998;7.614;2023-01-09T15:02:42;7.70;76.90
23671;DHT22;12012;51.998;7.614;2023-01-09T15:05:15;7.70;78.40
23671;DHT22;12012;51.998;7.614;2023-01-09T15:07:53;7.60;80.80
23671;DHT22;12012;51.998;7.614;2023-01-09T15:10:23;7.60;82.30
23671;DHT22;12012;51.998;7.614;2023-01-09T15:12:51;7.60;82.80
23671;DHT22;12012;51.998;7.614;2023-01-09T15:15:19;7.60;84.20
23671;DHT22;12012;51.998;7.614;2023-01-09T15:17:52;7.60;84.60
23671;DHT22;12012;51.998;7.614;2023-01-09T15:20:24;7.60;85.80
23671;DHT22;12012;51.998;7.614;2023-01-09T15:22:51;7.60;85.90
23671;DHT22;12012;51.998;7.614;2023-01-09T15:25:30;7.60;86.30
23671;DHT22;12012;51.998;7.614;2023-01-09T15:27:58;7.60;86.30
23671;DHT22;12012;51.998;7.614;2023-01-09T15:30:25;7.60;86.40
23671;DHT22;12012;51.998;7.614;2023-01-09T15:33:00;7.60;86.10
23671;DHT22;12012;51.998;7.614;2023-01-09T15:35:27;7.60;86.20
23671;DHT22;12012;51.998;7.614;2023-01-09T15:37:54;7.60;86.50
23671;DHT22;12012;51.998;7.614;2023-01-09T15:40:25;7.50;86.60
23671;DHT22;12012;51.998;7.614;2023-01-09T15:42:53;7.50;87.50
23671;DHT22;12012;51.998;7.614;2023-01-09T15:48:20;7.50;86.40
23671;DHT22;12012;51.998;7.614;2023-01-09T15:50:49;7.50;85.80
23671;DHT22;12012;51.998;7.614;2023-01-09T15:53:18;7.50;85.30
23671;DHT22;12012;51.998;7.614;2023-01-09T15:55:45;7.50;85.10
23671;DHT22;12012;51.998;7.614;2023-01-09T15:58:27;7.50;86.00
23671;DHT22;12012;51.998;7.614;2023-01-09T16:01:00;7.50;84.80
23671;DHT22;12012;51.998;7.614;2023-01-09T16:03:26;7.40;86.60
23671;DHT22;12012;51.998;7.614;2023-01-09T16:06:06;7.40;86.90
23671;DHT22;12012;51.998;7.614;2023-01-09T16:08:38;7.30;87.20
23671;DHT22;12012;51.998;7.614;2023-01-09T16:11:05;7.20;89.30
23671;DHT22;12012;51.998;7.614;2023-01-09T16:13:37;7.10;90.20
23671;DHT22;12012;51.998;7.614;2023-01-09T16:16:07;7.10;90.80
23671;DHT22;12012;51.998;7.614;2023-01-09T16:18:37;7.00;91.10
23671;DHT22;12012;51.998;7.614;2023-01-09T16:21:49;6.90;91.40
23671;DHT22;12012;51.998;7.614;2023-01-09T16:23:56;6.90;92.60
23671;DHT22;12012;51.998;7.614;2023-01-09T16:26:24;6.80;94.00
23671;DHT22;12012;51.998;7.614;2023-01-09T16:28:50;6.70;94.90
23671;DHT22;12012;51.998;7.614;2023-01-09T16:31:20;6.70;95.60
23671;DHT22;12012;51.998;7.614;2023-01-09T16:33:52;6.70;96.10
23671;DHT22;12012;51.998;7.614;2023-01-09T16:36:18;6.60;96.70
23671;DHT22;12012;51.998;7.614;2023-01-09T16:38:45;6.60;97.10
23671;DHT22;12012;51.998;7.614;2023-01-09T16:41:16;6.60;97.50
23671;DHT22;12012;51.998;7.614;2023-01-09T16:44:01;6.60;98.00
23671;DHT22;12012;51.998;7.614;2023-01-09T16:46:32;6.50;98.20
23671;DHT22;12012;51.998;7.614;2023-01-09T16:48:58;6.50;99.10
23671;DHT22;12012;51.998;7.614;2023-01-09T16:51:24;6.50;99.50
23671;DHT22;12012;51.998;7.614;2023-01-09T16:53:50;6.50;99.60
23671;DHT22;12012;51.998;7.614;2023-01-09T16:56:19;6.50;99.80
23671;DHT22;12012;51.998;7.614;2023-01-09T16:58:46;6.40;99.60
23671;DHT22;12012;51.998;7.614;2023-01-09T17:01:12;6.40;99.60
23671;DHT22;12012;51.998;7.614;2023-01-09T17:03:39;6.50;99.80
23671;DHT22;12012;51.998;7.614;2023-01-09T17:06:06;6.50;99.70
23671;DHT22;12012;51.998;7.614;2023-01-09T17:08:34;6.50;99.90
23671;DHT22;12012;51.998;7.614;2023-01-09T17:11:02;6.50;99.90
23671;DHT22;12012;51.998;7.614;2023-01-09T17:13:29;6.50;99.90
23671;DHT22;12012;51.998;7.614;2023-01-09T17:15:56;6.40;99.90
23671;DHT22;12012;51.998;7.614;2023-01-09T17:18:24;6.50;99.90
23671;DHT22;12012;51.998;7.614;2023-01-09T17:20:53;6.40;99.90
23671;DHT22;12012;51.998;7.614;2023-01-09T17:23:19;6.40;99.90
23671;DHT22;12012;51.998;7.614;2023-01-09T17:25:56;6.40;99.90
23671;DHT22;12012;51.998;7.614;2023-01-09T17:28:47;6.40;99.90
23671;DHT22;12012;51.998;7.614;2023-01-09T17:31:13;6.40;99.90
23671;DHT22;12012;51.998;7.614;2023-01-09T17:33:40;6.40;99.90
23671;DHT22;12012;51.998;7.614;2023-01-09T17:36:25;6.40;99.90
23671;DHT22;12012;51.998;7.614;2023-01-09T17:38:59;6.40;99.90
23671;DHT22;12012;51.998;7.614;2023-01-09T17:41:27;6.40;99.90
23671;DHT22;12012;51.998;7.614;2023-01-09T17:43:53;6.40;99.90
23671;DHT22;12012;51.998;7.614;2023-01-09T17:46:35;6.40;99.90
23671;DHT22;12012;51.998;7.614;2023-01-09T17:49:03;6.40;99.90
23671;DHT22;12012;51.998;7.614;2023-01-09T17:51:29;6.40;99.90
23671;DHT22;12012;51.998;7.614;2023-01-09T17:53:55;6.30;99.90
23671;DHT22;12012;51.998;7.614;2023-01-09T17:56:24;6.30;99.90
23671;DHT22;12012;51.998;7.614;2023-01-09T17:58:50;6.30;99.90
23671;DHT22;12012;51.998;7.614;2023-01-09T18:01:17;6.30;99.90
23671;DHT22;12012;51.998;7.614;2023-01-09T18:03:44;6.30;99.90
23671;DHT22;12012;51.998;7.614;2023-01-09T18:06:14;6.30;99.90
23671;DHT22;12012;51.998;7.614;2023-01-09T18:08:40;6.30;99.90
23671;DHT22;12012;51.998;7.614;2023-01-09T18:11:10;6.30;99.90